Time;durP1;ratioP1;P1;durP2;ratioP2;P2;SDS_P1;SDS_P2;PMS_P1;PMS_P2;Temp;Humidity;BMP_temperature;BMP_pressure;BME280_temperature;BME280_humidity;BME280_pressure;Samples;Min_cycle;Max_cycle;Signal;HPM_P1;HPM_P2
2023/03/16 02:26:25;;;;;;;15.07;8.70;;;;;;;-2.56;100.00;96180.75;1032810;23;20060;-65
2023/03/16 02:26:58;;;;;;;18.27;9.45;;;;;;;-2.60;100.00;96179.50;1039485;28;20096;-65
2023/03/16 02:27:34;;;;;;;16.17;9.70;;;;;;;-2.57;100.00;96183.50;1032104;28;20065;-69
2023/03/16 02:28:11;;;;;;;16.42;9.30;;;;;;;-2.59;100.00;96175.94;1027383;28;20022;-68
2023/03/16 02:28:50;;;;;;;18.25;10.23;;;;;;;-2.59;100.00;96177.72;1029241;28;20023;-64
2023/03/16 02:29:58;;;;;;;18.05;9.70;;;;;;;-2.61;100.00;96178.69;1032794;28;20042;-66
2023/03/16 02:30:30;;;;;;;19.13;9.40;;;;;;;-2.62;100.00;96173.72;1034899;28;20045;-66
2023/03/16 02:31:00;;;;;;;20.77;10.00;;;;;;;-2.61;100.00;96177.91;1028310;28;20031;-65
2023/03/16 02:31:31;;;;;;;16.37;9.90;;;;;;;-2.63;100.00;96172.91;1031068;28;20027;-65
2023/03/16 02:32:01;;;;;;;22.50;11.30;;;;;;;-2.63;100.00;96177.25;1027218;28;20026;-66
2023/03/16 02:32:32;;;;;;;19.33;10.37;;;;;;;-2.62;100.00;96176.28;1022846;28;20012;-65
2023/03/16 02:33:03;;;;;;;20.47;9.57;;;;;;;-2.62;100.00;96171.97;1022901;29;20102;-65
2023/03/16 02:33:35;;;;;;;17.65;10.23;;;;;;;-2.68;100.00;96164.13;1023319;28;20034;-65
2023/03/16 02:34:15;;;;;;;18.15;10.25;;;;;;;-2.62;100.00;96171.97;1027131;28;20078;-65
2023/03/16 02:34:46;;;;;;;19.80;10.38;;;;;;;-2.63;100.00;96174.69;1025062;28;20012;-65
2023/03/16 02:35:16;;;;;;;18.33;10.40;;;;;;;-2.64;100.00;96179.03;1026910;28;20019;-65
2023/03/16 02:35:47;;;;;;;20.93;11.00;;;;;;;-2.65;100.00;96169.72;1024074;28;20018;-65
2023/03/16 02:36:17;;;;;;;19.10;10.73;;;;;;;-2.65;100.00;96171.47;1016151;29;20012;-65
2023/03/16 02:36:48;;;;;;;25.60;10.20;;;;;;;-2.65;100.00;96172.31;1023297;28;20059;-66
2023/03/16 02:37:18;;;;;;;20.57;10.53;;;;;;;-2.66;100.00;96173.25;1026088;28;20450;-64
2023/03/16 02:37:49;;;;;;;21.57;10.43;;;;;;;-2.67;100.00;96176.00;1027166;28;20204;-64
2023/03/16 02:38:19;;;;;;;17.60;9.43;;;;;;;-2.65;100.00;96179.19;1023140;29;20015;-66
2023/03/16 02:38:50;;;;;;;20.20;10.00;;;;;;;-2.66;100.00;96175.81;1023232;29;20019;-65
2023/03/16 02:39:20;;;;;;;20.17;10.50;;;;;;;-2.66;100.00;96175.81;1025463;28;20074;-65
2023/03/16 02:39:51;;;;;;;19.07;10.13;;;;;;;-2.64;100.00;96179.03;1027131;28;20025;-65
2023/03/16 02:40:27;;;;;;;19.40;9.97;;;;;;;-2.63;100.00;96174.69;1033575;28;20018;-66
2023/03/16 02:41:09;;;;;;;19.73;9.98;;;;;;;-2.64;100.00;96173.91;1035964;28;20392;-65
2023/03/16 02:41:40;;;;;;;19.80;10.27;;;;;;;-2.64;100.00;96173.91;1023360;29;20038;-69
2023/03/16 02:42:12;;;;;;;15.68;9.43;;;;;;;-2.66;100.00;96188.66;1025395;28;20032;-65
2023/03/16 02:42:42;;;;;;;18.85;9.30;;;;;;;-2.67;100.00;96174.22;1032481;28;20224;-66
2023/03/16 02:43:18;;;;;;;20.00;9.97;;;;;;;-2.73;100.00;96164.63;1032205;28;20074;-65
2023/03/16 02:43:51;;;;;;;16.00;10.07;;;;;;;-2.68;100.00;96172.63;1022838;28;20484;-66
2023/03/16 02:44:32;;;;;;;19.35;10.57;;;;;;;-2.75;100.00;96161.44;1023345;29;20023;-66
2023/03/16 02:45:03;;;;;;;19.23;10.23;;;;;;;-2.67;100.00;96174.22;1025599;28;20034;-66
2023/03/16 02:45:41;;;;;;;18.77;10.40;;;;;;;-2.70;100.00;96164.28;1028759;28;20043;-65
2023/03/16 02:46:11;;;;;;;18.55;9.88;;;;;;;-2.70;100.00;96163.50;1031087;28;20026;-65
2023/03/16 02:46:42;;;;;;;19.07;10.57;;;;;;;-2.70;100.00;96172.00;1027057;28;20026;-65
2023/03/16 02:47:35;;;;;;;19.73;10.60;;;;;;;-2.74;100.00;96168.16;1024026;28;20106;-65
2023/03/16 02:48:13;;;;;;;19.33;10.30;;;;;;;-2.72;100.00;96166.22;1027037;28;20033;-65
2023/03/16 02:49:19;;;;;;;19.67;10.75;;;;;;;-2.72;100.00;96168.78;1019393;29;20040;-65
2023/03/16 02:49:49;;;;;;;21.08;10.85;;;;;;;-2.72;100.00;96161.09;1011113;29;20032;-65
2023/03/16 02:50:20;;;;;;;21.50;10.47;;;;;;;-2.73;100.00;96169.75;1010235;29;20048;-65
2023/03/16 02:50:52;;;;;;;19.27;10.80;;;;;;;-2.74;100.00;96157.09;1024565;28;20528;-66
2023/03/16 02:51:22;;;;;;;18.98;10.27;;;;;;;-2.73;100.00;96164.63;1027510;28;20031;-66
2023/03/16 02:51:53;;;;;;;19.67;10.87;;;;;;;-2.73;100.00;96168.97;1027721;28;20412;-65
2023/03/16 02:52:23;;;;;;;17.63;10.10;;;;;;;-2.76;100.00;96164.97;1028369;28;20593;-64
2023/03/16 02:52:53;;;;;;;19.03;11.00;;;;;;;-2.74;100.00;96163.03;1027728;28;20481;-66
2023/03/16 02:53:24;;;;;;;19.27;10.63;;;;;;;-2.72;100.00;96171.34;1031863;28;20041;-65
2023/03/16 02:53:54;;;;;;;18.47;9.80;;;;;;;-2.79;100.00;96157.59;1031896;28;20113;-67
2023/03/16 02:54:25;;;;;;;18.67;10.37;;;;;;;-2.74;100.00;96169.94;1027507;28;20035;-65
2023/03/16 02:54:58;;;;;;;19.43;10.50;;;;;;;-2.75;100.00;96164.00;1027753;28;20034;-68
2023/03/16 02:55:29;;;;;;;22.35;10.45;;;;;;;-2.75;100.00;96165.75;1028070;28;20027;-68
2023/03/16 02:56:01;;;;;;;22.17;10.50;;;;;;;-2.74;100.00;96170.75;1028141;28;20034;-69
2023/03/16 02:56:32;;;;;;;21.90;10.52;;;;;;;-2.72;100.00;96160.28;1027864;28;20105;-68
2023/03/16 02:57:02;;;;;;;19.07;10.33;;;;;;;-2.72;100.00;96163.66;1028562;28;20035;-66
2023/03/16 02:57:33;;;;;;;19.80;10.53;;;;;;;-2.77;100.00;96157.44;1033502;28;20419;-64
2023/03/16 02:58:03;;;;;;;20.47;10.33;;;;;;;-2.72;100.00;96165.41;1032307;28;20069;-68
2023/03/16 02:58:34;;;;;;;20.37;11.60;;;;;;;-2.72;100.00;96163.66;1035899;28;20026;-65
2023/03/16 02:59:04;;;;;;;21.83;11.33;;;;;;;-2.75;100.00;96160.63;1035778;28;20088;-65
2023/03/16 02:59:35;;;;;;;19.87;10.63;;;;;;;-2.72;100.00;96163.66;1036176;28;20038;-67
2023/03/16 03:00:11;;;;;;;19.50;10.93;;;;;;;-2.71;100.00;96162.69;1039984;28;20026;-65
2023/03/16 03:00:41;;;;;;;21.15;10.77;;;;;;;-2.88;100.00;96135.50;1040168;28;20040;-64
2023/03/16 03:01:12;;;;;;;20.37;10.30;;;;;;;-2.76;100.00;96164.16;1039110;28;20025;-65
2023/03/16 03:01:42;;;;;;;17.77;10.00;;;;;;;-2.74;100.00;96163.03;1031855;28;20500;-64
2023/03/16 03:02:13;;;;;;;20.37;11.47;;;;;;;-2.73;100.00;96168.97;1032036;28;20026;-65
2023/03/16 03:02:46;;;;;;;19.83;10.87;;;;;;;-2.73;100.00;96172.31;1033417;28;20022;-66
2023/03/16 03:03:17;;;;;;;20.80;10.77;;;;;;;-2.73;100.00;96172.31;1036312;28;20038;-65
2023/03/16 03:03:48;;;;;;;20.25;10.70;;;;;;;-2.74;100.00;96173.31;1040354;28;20116;-66
2023/03/16 03:04:19;;;;;;;19.70;11.00;;;;;;;-2.73;100.00;96174.91;1031655;28;20030;-65
2023/03/16 03:04:53;;;;;;;22.52;11.38;;;;;;;-2.82;100.00;96152.78;1032006;28;20058;-66
2023/03/16 03:05:23;;;;;;;20.13;10.38;;;;;;;-2.72;100.00;96173.91;1027765;28;20019;-65
2023/03/16 03:05:54;;;;;;;20.43;10.57;;;;;;;-2.72;100.00;96178.25;1024259;28;20027;-65
2023/03/16 03:06:24;;;;;;;20.57;12.00;;;;;;;-2.74;100.00;96173.31;1023366;29;20007;-66
2023/03/16 03:06:57;;;;;;;20.63;10.83;;;;;;;-2.71;100.00;96172.19;1020490;29;20046;-65
2023/03/16 03:07:30;;;;;;;22.63;10.82;;;;;;;-2.71;100.00;96167.03;1028643;28;20075;-71
2023/03/16 03:08:01;;;;;;;20.20;10.95;;;;;;;-2.71;100.00;96167.03;1036432;28;20028;-65
2023/03/16 03:08:32;;;;;;;21.77;10.50;;;;;;;-2.72;100.00;96165.41;1039813;28;20029;-65
2023/03/16 03:09:02;;;;;;;23.70;11.68;;;;;;;-2.72;100.00;96160.28;1032147;28;20025;-66
2023/03/16 03:09:33;;;;;;;19.67;10.17;;;;;;;-2.73;100.00;96169.75;1027581;28;20531;-66
2023/03/16 03:10:04;;;;;;;21.83;10.83;;;;;;;-2.69;100.00;96171.00;1027769;28;20015;-65
2023/03/16 03:10:36;;;;;;;26.40;11.63;;;;;;;-2.66;100.00;96172.44;1029038;28;20368;-67
2023/03/16 03:11:07;;;;;;;19.77;10.93;;;;;;;-2.66;100.00;96169.88;1036002;28;20078;-65
2023/03/16 03:11:38;;;;;;;20.07;10.53;;;;;;;-2.66;100.00;96165.53;1039745;28;20014;-68
2023/03/16 03:12:10;;;;;;;20.93;11.73;;;;;;;-2.65;100.00;96174.88;1032017;28;20014;-65
2023/03/16 03:12:41;;;;;;;23.58;11.82;;;;;;;-2.66;100.00;96173.25;1034930;28;20475;-65
2023/03/16 03:13:11;;;;;;;19.53;10.80;;;;;;;-2.71;100.00;96165.28;1036168;28;20022;-67
2023/03/16 03:13:43;;;;;;;20.23;10.77;;;;;;;-2.64;100.00;96171.31;1035738;28;20541;-69
2023/03/16 03:14:15;;;;;;;22.45;11.68;;;;;;;-2.63;100.00;96175.47;1035779;28;20022;-65
2023/03/16 03:14:45;;;;;;;21.70;12.50;;;;;;;-2.63;100.00;96164.41;1035696;28;20030;-63
2023/03/16 03:15:17;;;;;;;21.53;11.27;;;;;;;-2.64;100.00;96166.19;1032256;28;20483;-66
2023/03/16 03:15:47;;;;;;;21.88;11.18;;;;;;;-2.63;100.00;96165.22;1036039;28;20029;-67
2023/03/16 03:16:17;;;;;;;24.27;11.90;;;;;;;-2.62;100.00;96168.56;1035763;28;20029;-65
2023/03/16 03:16:48;;;;;;;21.90;11.70;;;;;;;-2.61;100.00;96168.41;1031919;28;20023;-68
2023/03/16 03:17:18;;;;;;;23.00;11.27;;;;;;;-2.62;100.00;96166.81;1031959;28;20018;-66
2023/03/16 03:17:49;;;;;;;21.27;11.13;;;;;;;-2.64;100.00;96158.47;1032288;28;20412;-64
2023/03/16 03:18:19;;;;;;;20.97;10.63;;;;;;;-2.65;100.00;96164.59;1031656;28;20415;-65
2023/03/16 03:18:51;;;;;;;19.67;10.70;;;;;;;-2.68;100.00;96156.44;1036002;28;20026;-64
2023/03/16 03:19:22;;;;;;;19.17;10.30;;;;;;;-2.67;100.00;96160.59;1031684;28;20027;-65
2023/03/16 03:19:53;;;;;;;20.93;11.17;;;;;;;-2.69;100.00;96165.88;1027746;28;20022;-67
2023/03/16 03:20:24;;;;;;;20.27;10.80;;;;;;;-2.69;100.00;96165.88;1027777;28;20033;-65
2023/03/16 03:20:54;;;;;;;20.37;10.80;;;;;;;-2.69;100.00;96165.88;1028121;28;20408;-65
2023/03/16 03:21:25;;;;;;;19.30;11.37;;;;;;;-2.70;100.00;96164.28;1034306;28;20030;-65
2023/03/16 03:21:58;;;;;;;19.73;10.60;;;;;;;-2.72;100.00;96166.22;1040193;28;20107;-65
2023/03/16 03:22:28;;;;;;;19.83;10.90;;;;;;;-2.71;100.00;96162.69;1035344;28;20018;-67
2023/03/16 03:22:59;;;;;;;21.60;10.60;;;;;;;-2.82;100.00;96145.09;1035493;28;20038;-65
2023/03/16 03:23:29;;;;;;;20.27;10.93;;;;;;;-2.71;100.00;96162.69;1027467;28;20566;-65
2023/03/16 03:24:00;;;;;;;20.73;10.33;;;;;;;-2.71;100.00;96161.91;1023900;29;20023;-66
2023/03/16 03:24:31;;;;;;;17.73;10.40;;;;;;;-2.71;100.00;96157.56;1025996;28;20023;-67
2023/03/16 03:25:01;;;;;;;19.45;11.18;;;;;;;-2.72;100.00;96161.09;1024018;28;20027;-64
2023/03/16 03:25:33;;;;;;;21.00;10.57;;;;;;;-2.73;100.00;96156.91;1031862;28;20042;-65
2023/03/16 03:26:04;;;;;;;18.10;10.05;;;;;;;-2.79;100.00;96151.66;1027623;28;20042;-65
2023/03/16 03:26:36;;;;;;;19.93;10.53;;;;;;;-2.77;100.00;96149.72;1032055;28;20030;-67
2023/03/16 03:27:07;;;;;;;19.67;12.48;;;;;;;-2.72;100.00;96158.50;1027504;28;20022;-65
2023/03/16 03:27:37;;;;;;;18.93;10.43;;;;;;;-2.74;100.00;96157.91;1026340;28;20030;-64
2023/03/16 03:28:08;;;;;;;20.93;11.03;;;;;;;-2.74;100.00;96157.91;1023581;28;20525;-69
2023/03/16 03:28:38;;;;;;;23.83;11.10;;;;;;;-2.73;100.00;96159.50;1020880;28;20031;-66
2023/03/16 03:29:09;;;;;;;20.40;11.17;;;;;;;-2.72;100.00;96150.00;1030653;28;20026;-67
2023/03/16 03:29:39;;;;;;;20.37;11.00;;;;;;;-2.71;100.00;96154.19;1026821;28;20086;-66
2023/03/16 03:30:15;;;;;;;23.47;11.67;;;;;;;-2.72;100.00;96162.84;1026539;28;20488;-67
2023/03/16 03:30:46;;;;;;;20.80;10.60;;;;;;;-2.72;100.00;96153.38;1030888;28;20033;-65
2023/03/16 03:31:17;;;;;;;21.13;10.73;;;;;;;-2.70;100.00;96158.34;1027648;28;20685;-66
2023/03/16 03:31:48;;;;;;;21.45;11.40;;;;;;;-2.69;100.00;96159.94;1027556;28;20022;-66
2023/03/16 03:32:18;;;;;;;19.40;10.50;;;;;;;-2.69;100.00;96159.94;1030835;28;20022;-70
2023/03/16 03:32:49;;;;;;;19.30;10.73;;;;;;;-2.69;100.00;96155.59;1025544;28;20036;-69
2023/03/16 03:33:21;;;;;;;22.10;11.03;;;;;;;-2.69;100.00;96158.19;1030837;28;20030;-66
2023/03/16 03:33:52;;;;;;;20.38;10.82;;;;;;;-2.70;100.00;96158.34;1029460;28;20022;-65
2023/03/16 03:34:22;;;;;;;16.77;9.85;;;;;;;-2.70;100.00;96159.16;1027092;28;20027;-68
2023/03/16 03:34:53;;;;;;;18.27;10.47;;;;;;;-2.70;100.00;96160.94;1031120;28;20026;-66
2023/03/16 03:35:23;;;;;;;25.67;11.53;;;;;;;-2.69;100.00;96160.75;1030685;28;20049;-67
2023/03/16 03:35:55;;;;;;;19.60;10.87;;;;;;;-2.69;100.00;96158.19;1031017;28;20023;-68
2023/03/16 03:36:26;;;;;;;20.85;10.85;;;;;;;-2.69;100.00;96155.59;1033738;28;20447;-66
2023/03/16 03:36:57;;;;;;;19.37;11.03;;;;;;;-2.68;100.00;96159.78;1034926;28;20030;-67
2023/03/16 03:37:27;;;;;;;22.80;11.37;;;;;;;-2.69;100.00;96153.03;1035203;28;20018;-71
2023/03/16 03:37:58;;;;;;;22.37;11.50;;;;;;;-2.68;100.00;96156.44;1034796;28;20451;-67
2023/03/16 03:38:29;;;;;;;23.23;11.87;;;;;;;-2.73;100.00;96149.22;1034950;28;20422;-68
2023/03/16 03:39:03;;;;;;;20.10;10.90;;;;;;;-2.68;100.00;96152.09;1030993;28;20086;-67
2023/03/16 03:39:34;;;;;;;21.25;11.00;;;;;;;-2.69;100.00;96150.47;1038880;28;20026;-67
2023/03/16 03:40:10;;;;;;;19.67;10.87;;;;;;;-2.68;100.00;96159.78;1038752;28;20574;-65
2023/03/16 03:40:44;;;;;;;20.75;11.70;;;;;;;-2.69;100.00;96153.03;1037323;28;20022;-68
2023/03/16 03:41:15;;;;;;;20.23;11.23;;;;;;;-2.68;100.00;96154.66;1038834;28;20371;-65
2023/03/16 03:41:45;;;;;;;21.80;11.20;;;;;;;-2.70;100.00;96150.66;1039308;28;20034;-68
2023/03/16 03:42:16;;;;;;;21.53;12.20;;;;;;;-2.70;100.00;96142.94;1038711;28;20025;-69
2023/03/16 03:42:46;;;;;;;20.03;10.67;;;;;;;-2.71;100.00;96152.44;1038253;28;20021;-66
2023/03/16 03:43:17;;;;;;;20.97;11.57;;;;;;;-2.72;100.00;96145.66;1035120;28;20017;-69
2023/03/16 03:43:47;;;;;;;21.23;11.35;;;;;;;-2.74;100.00;96147.63;1026526;28;20476;-66
2023/03/16 03:44:17;;;;;;;27.10;11.40;;;;;;;-2.73;100.00;96149.22;1027019;28;20022;-68
2023/03/16 03:44:50;;;;;;;17.27;10.47;;;;;;;-2.73;100.00;96146.66;1022634;28;20516;-67
2023/03/16 03:45:20;;;;;;;20.65;11.32;;;;;;;-2.73;100.00;96149.22;1019374;28;20019;-66
2023/03/16 03:45:58;;;;;;;22.97;11.30;;;;;;;-2.76;100.00;96144.41;1018727;29;20028;-69
2023/03/16 03:46:28;;;;;;;21.75;11.68;;;;;;;-2.76;100.00;96143.63;1016068;29;20024;-68
2023/03/16 03:46:59;;;;;;;21.70;10.27;;;;;;;-2.81;100.00;96143.34;1021099;28;20598;-67
2023/03/16 03:47:29;;;;;;;17.20;10.50;;;;;;;-2.78;100.00;96148.94;1025201;28;20027;-66
2023/03/16 03:48:00;;;;;;;19.77;10.77;;;;;;;-2.78;100.00;96150.69;1026533;28;20023;-68
2023/03/16 03:48:30;;;;;;;22.53;10.83;;;;;;;-2.81;100.00;96144.13;1030708;28;20065;-66
2023/03/16 03:49:04;;;;;;;19.93;10.90;;;;;;;-2.80;100.00;96142.38;1020073;28;20024;-69
2023/03/16 03:49:34;;;;;;;21.88;10.90;;;;;;;-2.81;100.00;96149.28;1019688;28;20110;-67
2023/03/16 03:50:05;;;;;;;21.10;10.77;;;;;;;-2.81;100.00;96144.13;1022862;29;20027;-66
2023/03/16 03:50:37;;;;;;;23.67;12.05;;;;;;;-2.80;100.00;96143.16;1026949;28;20034;-67
2023/03/16 03:51:08;;;;;;;23.90;10.75;;;;;;;-2.79;100.00;96146.53;1022270;29;20073;-69
2023/03/16 03:51:39;;;;;;;22.20;11.17;;;;;;;-2.83;100.00;96138.38;1023109;28;20035;-66
2023/03/16 03:52:10;;;;;;;19.73;10.93;;;;;;;-2.79;100.00;96142.19;1022794;29;20094;-67
2023/03/16 03:52:41;;;;;;;19.93;11.17;;;;;;;-2.81;100.00;96141.56;1025662;28;20090;-65
2023/03/16 03:53:11;;;;;;;24.17;10.97;;;;;;;-2.80;100.00;96140.59;1018891;29;20252;-66
2023/03/16 03:53:41;;;;;;;19.97;10.93;;;;;;;-2.85;100.00;96124.88;1022860;28;20023;-68
2023/03/16 03:54:12;;;;;;;21.60;11.13;;;;;;;-2.79;100.00;96134.47;1025179;28;20033;-68
2023/03/16 03:54:42;;;;;;;19.50;10.80;;;;;;;-2.79;100.00;96138.81;1034824;28;20590;-65
2023/03/16 03:55:13;;;;;;;20.30;11.80;;;;;;;-2.79;100.00;96134.47;1039229;28;20072;-67
2023/03/16 03:55:43;;;;;;;22.70;11.77;;;;;;;-2.79;100.00;96136.25;1034571;28;20026;-66
2023/03/16 03:56:14;;;;;;;22.47;11.33;;;;;;;-2.80;100.00;96138.03;1030660;28;20593;-68
2023/03/16 03:56:44;;;;;;;20.40;11.50;;;;;;;-2.80;100.00;96134.66;1026978;28;20094;-67
2023/03/16 03:57:15;;;;;;;22.97;12.40;;;;;;;-2.81;100.00;96136.44;1026846;28;20019;-65
2023/03/16 03:57:45;;;;;;;20.20;10.87;;;;;;;-2.81;100.00;96139.00;1027278;28;20019;-67
2023/03/16 03:58:16;;;;;;;20.40;11.23;;;;;;;-2.86;100.00;96123.28;1026829;28;20023;-70
2023/03/16 03:58:46;;;;;;;21.57;11.30;;;;;;;-2.79;100.00;96129.34;1030631;28;20049;-67
2023/03/16 03:59:17;;;;;;;23.23;10.97;;;;;;;-2.80;100.00;96138.03;1032940;28;20025;-69
2023/03/16 03:59:47;;;;;;;22.10;11.70;;;;;;;-2.80;100.00;96134.66;1035093;28;20030;-66
2023/03/16 04:00:20;;;;;;;22.10;11.07;;;;;;;-2.79;100.00;96137.03;1034500;28;20048;-67
2023/03/16 04:00:51;;;;;;;21.05;10.95;;;;;;;-2.80;100.00;96134.66;1032654;28;20482;-66
2023/03/16 04:01:21;;;;;;;22.90;11.67;;;;;;;-2.83;100.00;96140.13;1034632;28;20305;-67
2023/03/16 04:01:52;;;;;;;19.80;11.23;;;;;;;-2.80;100.00;96138.03;1030837;28;20542;-69
2023/03/16 04:02:23;;;;;;;21.83;11.25;;;;;;;-2.81;100.00;96138.22;1026291;28;20524;-69
2023/03/16 04:02:53;;;;;;;20.33;10.73;;;;;;;-2.80;100.00;96140.59;1021895;28;20357;-68
2023/03/16 04:03:24;;;;;;;26.17;12.30;;;;;;;-2.80;100.00;96143.16;1022992;28;20823;-69
2023/03/16 04:03:54;;;;;;;21.20;11.50;;;;;;;-2.81;100.00;96140.78;1026659;28;20484;-67
2023/03/16 04:04:25;;;;;;;22.00;11.70;;;;;;;-2.82;100.00;96147.66;1028843;28;20078;-68
2023/03/16 04:04:55;;;;;;;20.63;11.10;;;;;;;-2.83;100.00;96142.69;1030824;28;20027;-66
2023/03/16 04:05:26;;;;;;;17.87;9.97;;;;;;;-2.83;100.00;96143.50;1034642;28;20033;-67
2023/03/16 04:05:56;;;;;;;20.50;11.40;;;;;;;-2.83;100.00;96140.94;1034358;28;20509;-67
2023/03/16 04:06:27;;;;;;;23.83;11.23;;;;;;;-2.83;100.00;96143.50;1026565;28;20031;-65
2023/03/16 04:06:57;;;;;;;25.60;12.43;;;;;;;-2.83;100.00;96142.69;1026613;28;20023;-65
2023/03/16 04:07:28;;;;;;;22.27;10.80;;;;;;;-2.83;100.00;96147.84;1026777;28;20062;-71
2023/03/16 04:07:58;;;;;;;22.17;12.00;;;;;;;-2.83;100.00;96145.28;1026240;28;20030;-65
2023/03/16 04:08:29;;;;;;;20.90;11.53;;;;;;;-2.82;100.00;96149.44;1029073;28;20106;-67
2023/03/16 04:08:59;;;;;;;24.30;12.47;;;;;;;-2.86;100.00;96146.41;1030766;28;20382;-67
2023/03/16 04:09:32;;;;;;;23.50;11.23;;;;;;;-2.89;100.00;96142.38;1030716;28;20057;-66
2023/03/16 04:10:04;;;;;;;19.45;10.88;;;;;;;-2.84;100.00;96149.59;1034658;28;20040;-66
2023/03/16 04:10:34;;;;;;;22.52;12.23;;;;;;;-2.84;100.00;96152.19;1035019;28;20108;-65
2023/03/16 04:11:05;;;;;;;24.90;11.53;;;;;;;-2.90;100.00;96140.81;1033902;28;20060;-65
2023/03/16 04:11:36;;;;;;;20.90;11.27;;;;;;;-2.89;100.00;96149.31;1030968;28;20033;-69
2023/03/16 04:12:06;;;;;;;23.30;11.90;;;;;;;-2.86;100.00;96151.53;1030716;28;20511;-66
2023/03/16 04:12:37;;;;;;;22.30;11.77;;;;;;;-2.87;100.00;96152.50;1033985;28;20117;-67
2023/03/16 04:13:07;;;;;;;21.87;11.53;;;;;;;-2.89;100.00;96155.22;1034618;28;20029;-68
2023/03/16 04:13:38;;;;;;;26.17;11.80;;;;;;;-2.88;100.00;96150.91;1034531;28;20073;-66
2023/03/16 04:14:08;;;;;;;22.23;11.60;;;;;;;-2.88;100.00;96156.06;1034731;28;20255;-65
2023/03/16 04:14:39;;;;;;;22.87;11.67;;;;;;;-2.88;100.00;96156.06;1029353;28;20034;-69
2023/03/16 04:15:11;;;;;;;22.70;11.60;;;;;;;-2.89;100.00;96151.88;1026537;28;20106;-64
2023/03/16 04:15:41;;;;;;;20.00;10.98;;;;;;;-2.89;100.00;96154.44;1026921;28;20197;-67
2023/03/16 04:16:15;;;;;;;22.60;11.53;;;;;;;-2.89;100.00;96154.44;1027049;28;20050;-67
2023/03/16 04:16:45;;;;;;;23.25;12.25;;;;;;;-2.91;100.00;96152.03;1027112;28;20031;-67
2023/03/16 04:17:16;;;;;;;22.70;12.17;;;;;;;-2.91;100.00;96152.03;1022664;29;20070;-66
2023/03/16 04:17:47;;;;;;;26.83;11.53;;;;;;;-2.92;100.00;96149.63;1022424;28;20032;-66
2023/03/16 04:18:17;;;;;;;21.90;12.00;;;;;;;-2.92;100.00;96152.19;1019400;28;20029;-66
2023/03/16 04:18:47;;;;;;;23.40;11.97;;;;;;;-2.93;100.00;96159.09;1027025;28;20632;-67
2023/03/16 04:19:18;;;;;;;23.57;12.33;;;;;;;-2.94;100.00;96154.94;1030619;28;20022;-66
2023/03/16 04:19:48;;;;;;;20.63;11.43;;;;;;;-2.99;100.00;96156.41;1026755;28;20404;-66
2023/03/16 04:20:19;;;;;;;26.20;12.10;;;;;;;-2.94;100.00;96151.59;1026646;28;20046;-67
2023/03/16 04:20:52;;;;;;;23.10;11.83;;;;;;;-2.94;100.00;96146.44;1026661;28;20077;-68
2023/03/16 04:21:22;;;;;;;24.38;11.60;;;;;;;-2.97;100.00;96147.56;1020763;28;20412;-67
2023/03/16 04:21:53;;;;;;;24.57;11.87;;;;;;;-2.96;100.00;96149.16;1026831;28;20050;-67
2023/03/16 04:22:23;;;;;;;25.13;12.27;;;;;;;-2.96;100.00;96153.50;1030422;28;20033;-65
2023/03/16 04:22:57;;;;;;;23.77;11.37;;;;;;;-3.02;100.00;96141.34;1030512;28;20030;-65
2023/03/16 04:23:32;;;;;;;22.80;11.18;;;;;;;-2.94;100.00;96157.50;1030449;28;20255;-66
2023/03/16 04:24:04;;;;;;;23.15;12.85;;;;;;;-2.94;100.00;96151.59;1030493;28;20042;-67
2023/03/16 04:24:34;;;;;;;21.98;11.68;;;;;;;-3.00;100.00;96139.41;1031897;28;20088;-68
2023/03/16 04:25:05;;;;;;;25.27;11.40;;;;;;;-2.92;100.00;96154.75;1030506;28;20088;-68
2023/03/16 04:25:37;;;;;;;23.93;12.10;;;;;;;-2.92;100.00;96150.47;1030858;28;20081;-65
2023/03/16 04:26:07;;;;;;;23.38;12.00;;;;;;;-2.92;100.00;96149.63;1030057;28;20069;-65
2023/03/16 04:26:38;;;;;;;23.50;11.73;;;;;;;-2.91;100.00;96157.19;1030262;28;20038;-67
2023/03/16 04:27:10;;;;;;;24.20;11.97;;;;;;;-2.91;100.00;96152.03;1038055;28;20033;-66
2023/03/16 04:27:41;;;;;;;27.88;12.98;;;;;;;-2.92;100.00;96140.19;1030398;28;20025;-67
2023/03/16 04:28:12;;;;;;;28.20;12.80;;;;;;;-2.94;100.00;96147.25;1026863;28;20081;-68
2023/03/16 04:28:46;;;;;;;26.47;12.30;;;;;;;-2.90;100.00;96150.28;1026358;28;20092;-68
2023/03/16 04:29:17;;;;;;;27.27;12.63;;;;;;;-2.95;100.00;96144.81;1027276;28;20488;-65
2023/03/16 04:29:47;;;;;;;21.33;11.83;;;;;;;-2.92;100.00;96145.31;1031510;28;20023;-68
2023/03/16 04:30:18;;;;;;;25.13;11.43;;;;;;;-2.92;100.00;96145.31;1035969;28;20457;-69
2023/03/16 04:30:48;;;;;;;26.47;12.73;;;;;;;-2.92;100.00;96149.63;1034811;28;20013;-68
2023/03/16 04:31:19;;;;;;;24.07;12.80;;;;;;;-2.93;100.00;96142.91;1030606;28;20026;-68
2023/03/16 04:31:49;;;;;;;28.57;12.80;;;;;;;-2.94;100.00;96142.09;1026437;28;20018;-65
2023/03/16 04:32:20;;;;;;;30.63;13.50;;;;;;;-2.94;100.00;96142.09;1027072;28;20081;-66
2023/03/16 04:32:51;;;;;;;30.50;12.90;;;;;;;-2.94;100.00;96141.31;1026772;28;20508;-67
2023/03/16 04:33:21;;;;;;;21.60;11.70;;;;;;;-2.95;100.00;96144.81;1030799;28;20116;-65
2023/03/16 04:33:53;;;;;;;23.63;12.23;;;;;;;-2.95;100.00;96142.25;1031011;28;20044;-67
2023/03/16 04:34:23;;;;;;;26.60;12.43;;;;;;;-3.05;100.00;96121.97;1030748;28;20456;-65
2023/03/16 04:34:55;;;;;;;24.33;12.50;;;;;;;-2.95;100.00;96140.53;1035254;28;20037;-69
2023/03/16 04:35:26;;;;;;;22.58;11.13;;;;;;;-2.94;100.00;96134.41;1038451;28;20100;-65
2023/03/16 04:35:56;;;;;;;25.93;12.40;;;;;;;-2.92;100.00;96139.38;1034628;28;20049;-65
2023/03/16 04:36:27;;;;;;;21.53;11.57;;;;;;;-2.93;100.00;96132.63;1034671;28;20025;-67
2023/03/16 04:36:57;;;;;;;24.23;12.13;;;;;;;-2.94;100.00;96138.75;1034517;28;20418;-66
2023/03/16 04:37:28;;;;;;;26.03;13.00;;;;;;;-2.94;100.00;96141.31;1034540;28;20056;-68
2023/03/16 04:37:58;;;;;;;25.80;12.30;;;;;;;-2.96;100.00;96136.34;1034833;28;20026;-67
2023/03/16 04:38:29;;;;;;;27.83;13.90;;;;;;;-3.00;100.00;96126.59;1030190;28;20033;-69
2023/03/16 04:39:01;;;;;;;23.93;12.47;;;;;;;-2.96;100.00;96135.53;1030634;28;20404;-65
2023/03/16 04:39:31;;;;;;;24.20;12.43;;;;;;;-2.96;100.00;96135.53;1026598;28;20027;-68
2023/03/16 04:40:09;;;;;;;24.20;12.00;;;;;;;-2.98;100.00;96134.94;1026478;28;20023;-66
2023/03/16 04:40:40;;;;;;;23.50;11.70;;;;;;;-3.02;100.00;96123.38;1021440;29;20592;-68
2023/03/16 04:41:11;;;;;;;25.53;12.77;;;;;;;-3.01;100.00;96128.34;1021131;28;20035;-69
2023/03/16 04:41:42;;;;;;;22.10;11.57;;;;;;;-2.98;100.00;96129.78;1024075;28;20027;-66
2023/03/16 04:42:13;;;;;;;26.83;12.68;;;;;;;-3.01;100.00;96122.44;1025196;28;20440;-68
2023/03/16 04:42:44;;;;;;;25.53;12.27;;;;;;;-3.02;100.00;96126.72;1021717;29;20027;-68
2023/03/16 04:43:15;;;;;;;26.40;12.07;;;;;;;-3.01;100.00;96132.69;1018877;29;20031;-67
2023/03/16 04:43:45;;;;;;;21.27;11.83;;;;;;;-3.00;100.00;96131.72;1018592;29;20579;-66
2023/03/16 04:44:16;;;;;;;25.73;12.87;;;;;;;-3.02;100.00;96124.16;1022936;28;20035;-66
2023/03/16 04:44:47;;;;;;;24.92;12.45;;;;;;;-3.01;100.00;96125.00;1031088;28;20018;-70
2023/03/16 04:45:17;;;;;;;25.13;11.97;;;;;;;-3.01;100.00;96130.13;1034671;28;20036;-67
2023/03/16 04:45:49;;;;;;;23.67;12.40;;;;;;;-3.01;100.00;96128.34;1030767;28;20061;-67
2023/03/16 04:46:20;;;;;;;24.63;12.63;;;;;;;-3.01;100.00;96127.56;1034555;28;20026;-67
2023/03/16 04:46:51;;;;;;;22.40;11.87;;;;;;;-3.00;100.00;96129.16;1030603;28;20109;-65
2023/03/16 04:47:22;;;;;;;24.30;12.60;;;;;;;-3.00;100.00;96127.38;1030560;28;20021;-67
2023/03/16 04:47:52;;;;;;;24.77;12.57;;;;;;;-3.00;100.00;96126.59;1030171;28;20125;-67
2023/03/16 04:48:24;;;;;;;21.63;12.53;;;;;;;-2.99;100.00;96125.59;1030497;28;20348;-66
2023/03/16 04:48:57;;;;;;;22.38;11.23;;;;;;;-3.00;100.00;96126.59;1031593;28;20038;-65
2023/03/16 04:49:27;;;;;;;23.45;12.45;;;;;;;-2.99;100.00;96123.03;1038977;28;20613;-64
2023/03/16 04:49:58;;;;;;;27.63;12.67;;;;;;;-3.02;100.00;96115.66;1039269;28;20025;-66